createdAt,value
2022-09-12T00:01:06.915Z,4.87
2022-09-12T00:03:36.894Z,5.17
2022-09-12T00:06:10.269Z,4.95
2022-09-12T00:08:41.390Z,4.73
2022-09-12T00:11:14.238Z,4.97
2022-09-12T00:13:47.106Z,4.83
2022-09-12T00:16:24.196Z,4.67
2022-09-12T00:18:55.337Z,4.40
2022-09-12T00:21:25.524Z,4.60
2022-09-12T00:23:54.745Z,5.05
2022-09-12T00:26:25.292Z,5.10
2022-09-12T00:31:31.523Z,4.83
2022-09-12T00:34:01.987Z,4.13
2022-09-12T00:36:36.722Z,4.53
2022-09-12T00:39:08.068Z,4.00
2022-09-12T00:41:41.278Z,4.40
2022-09-12T00:44:48.064Z,4.17
2022-09-12T00:47:25.963Z,4.67
2022-09-12T00:50:01.571Z,4.93
2022-09-12T00:52:37.789Z,4.87
2022-09-12T00:55:11.504Z,5.30
2022-09-12T00:57:47.871Z,4.53
2022-09-12T01:00:21.021Z,4.30
2022-09-12T01:02:57.948Z,4.53
2022-09-12T01:05:32.836Z,4.50
2022-09-12T01:08:05.558Z,4.20
2022-09-12T01:10:37.473Z,4.20
2022-09-12T01:13:10.319Z,4.50
2022-09-12T01:15:42.361Z,4.60
2022-09-12T01:18:20.533Z,4.50
2022-09-12T01:21:01.817Z,4.00
2022-09-12T01:24:04.616Z,4.30
2022-09-12T01:26:54.012Z,4.37
2022-09-12T01:29:47.457Z,4.40
2022-09-12T01:32:27.336Z,4.57
2022-09-12T01:35:07.906Z,4.32
2022-09-12T01:37:44.466Z,4.75
2022-09-12T01:40:23.449Z,4.83
2022-09-12T01:43:04.507Z,4.80
2022-09-12T01:45:42.738Z,4.30
2022-09-12T01:48:18.677Z,4.50
2022-09-12T01:50:55.387Z,4.63
2022-09-12T01:53:28.928Z,4.63
2022-09-12T01:56:07.032Z,4.43
2022-09-12T01:58:46.062Z,4.60
2022-09-12T02:01:32.503Z,4.23
2022-09-12T02:04:16.427Z,4.13
2022-09-12T02:07:00.033Z,4.07
2022-09-12T02:09:37.475Z,4.47
2022-09-12T02:12:16.517Z,4.93
2022-09-12T02:14:52.098Z,4.97
2022-09-12T02:17:29.108Z,4.43
2022-09-12T02:20:06.002Z,5.20
2022-09-12T02:22:42.644Z,4.70
2022-09-12T02:25:15.436Z,4.53
2022-09-12T02:27:54.545Z,4.73
2022-09-12T02:30:27.121Z,4.30
2022-09-12T02:33:05.407Z,4.57
2022-09-12T02:35:48.799Z,4.50
2022-09-12T02:38:31.323Z,4.20
2022-09-12T02:41:05.876Z,4.70
2022-09-12T02:43:47.315Z,4.67
2022-09-12T02:46:27.127Z,4.77
2022-09-12T02:48:59.004Z,5.20
2022-09-12T02:54:58.361Z,5.20
2022-09-12T02:57:26.635Z,4.83
2022-09-12T03:00:02.165Z,4.53
2022-09-12T03:02:41.011Z,4.40
2022-09-12T03:05:27.807Z,4.80
2022-09-12T03:08:22.717Z,4.40
2022-09-12T03:11:14.831Z,4.83
2022-09-12T03:13:57.154Z,5.07
2022-09-12T03:16:37.262Z,5.17
2022-09-12T03:19:13.164Z,5.05
2022-09-12T03:21:56.215Z,5.03
2022-09-12T03:24:33.043Z,5.07
2022-09-12T03:27:13.301Z,4.57
2022-09-12T03:29:43.196Z,5.10
2022-09-12T03:32:13.218Z,4.50
2022-09-12T03:34:42.994Z,4.72
2022-09-12T03:37:11.018Z,4.60
2022-09-12T03:39:41.116Z,4.83
2022-09-12T03:42:12.219Z,4.55
2022-09-12T03:44:40.070Z,5.67
2022-09-12T03:47:11.355Z,4.77
2022-09-12T03:49:41.165Z,4.73
2022-09-12T03:52:09.212Z,4.80
2022-09-12T03:54:39.628Z,4.60
2022-09-12T03:57:11.055Z,4.40
2022-09-12T03:59:38.873Z,4.50
2022-09-12T04:02:06.720Z,4.77
2022-09-12T04:04:38.459Z,5.20
2022-09-12T04:07:06.306Z,4.77
2022-09-12T04:09:34.182Z,4.90
2022-09-12T04:12:06.472Z,4.63
2022-09-12T04:14:35.767Z,4.80
2022-09-12T04:17:03.658Z,4.10
2022-09-12T04:19:33.293Z,4.80
2022-09-12T04:22:01.161Z,4.82
2022-09-12T04:24:28.942Z,4.83
2022-09-12T04:27:04.810Z,4.47
2022-09-12T04:29:36.723Z,4.57
2022-09-12T04:32:06.939Z,4.27
2022-09-12T04:34:37.272Z,4.82
2022-09-12T04:37:05.327Z,4.53
2022-09-12T04:39:37.441Z,4.30
2022-09-12T04:42:05.837Z,4.17
2022-09-12T04:44:33.662Z,5.23
2022-09-12T04:47:06.642Z,5.10
2022-09-12T04:49:35.475Z,5.20
2022-09-12T04:52:03.821Z,6.83
2022-09-12T04:54:36.211Z,8.67
2022-09-12T04:57:04.047Z,6.37
2022-09-12T04:59:34.255Z,8.27
2022-09-12T05:04:47.556Z,8.40
2022-09-12T05:07:17.327Z,7.28
2022-09-12T05:09:45.098Z,8.02
2022-09-12T05:12:14.963Z,7.03
2022-09-12T05:14:44.783Z,6.03
2022-09-12T05:17:13.998Z,5.40
2022-09-12T05:19:43.974Z,5.60
2022-09-12T05:22:13.811Z,4.88
2022-09-12T05:24:47.268Z,5.10
2022-09-12T05:27:22.236Z,5.30
2022-09-12T05:29:52.563Z,5.43
2022-09-12T05:32:21.877Z,4.43
2022-09-12T05:34:51.730Z,5.23
2022-09-12T05:37:19.666Z,5.05
2022-09-12T05:39:47.523Z,4.77
2022-09-12T05:42:17.250Z,5.10
2022-09-12T05:44:47.229Z,5.20
2022-09-12T05:47:17.429Z,5.57
2022-09-12T05:49:50.272Z,5.38
2022-09-12T05:52:20.347Z,5.00
2022-09-12T05:54:49.706Z,5.68
2022-09-12T05:57:19.563Z,6.00
2022-09-12T05:59:49.814Z,5.72
2022-09-12T06:02:19.914Z,5.70
2022-09-12T06:04:51.085Z,5.80
2022-09-12T06:07:19.029Z,5.70
2022-09-12T06:09:48.959Z,5.43
2022-09-12T06:12:18.826Z,6.00
2022-09-12T06:14:46.635Z,5.68
2022-09-12T06:17:18.531Z,6.27
2022-09-12T06:19:46.511Z,5.63
2022-09-12T06:22:15.732Z,6.30
2022-09-12T06:24:47.654Z,5.97
2022-09-12T06:27:15.528Z,5.70
2022-09-12T06:29:43.332Z,5.10
2022-09-12T06:32:15.124Z,5.03
2022-09-12T06:34:43.048Z,5.40
2022-09-12T06:37:11.282Z,4.97
2022-09-12T06:39:44.574Z,4.77
2022-09-12T06:42:13.984Z,5.17
2022-09-12T06:44:44.748Z,5.27
2022-09-12T06:47:14.844Z,4.40
2022-09-12T06:49:42.791Z,4.45
2022-09-12T06:52:12.765Z,4.40
2022-09-12T06:54:44.113Z,4.13
2022-09-12T06:57:11.818Z,3.50
2022-09-12T06:59:42.545Z,3.10
2022-09-12T07:02:12.360Z,3.17
2022-09-12T07:04:40.296Z,2.10
2022-09-12T07:07:08.169Z,2.25
2022-09-12T07:09:36.159Z,2.38
2022-09-12T07:12:06.258Z,2.40
2022-09-12T07:14:36.244Z,2.35
2022-09-12T07:17:06.045Z,1.90
2022-09-12T07:19:36.071Z,2.05
2022-09-12T07:22:09.224Z,1.90
2022-09-12T07:24:40.168Z,2.40
2022-09-12T07:27:10.005Z,2.35
2022-09-12T07:29:39.692Z,2.00
2022-09-12T07:32:09.884Z,1.95
2022-09-12T07:34:39.813Z,2.10
2022-09-12T07:37:09.555Z,2.80
2022-09-12T07:39:37.946Z,2.42
2022-09-12T07:42:07.060Z,2.67
2022-09-12T07:44:38.089Z,2.70
2022-09-12T07:54:47.469Z,2.30
2022-09-12T07:57:15.850Z,1.92
2022-09-12T07:59:53.038Z,1.67
2022-09-12T08:02:21.563Z,1.95
2022-09-12T08:04:51.510Z,1.88
2022-09-12T08:07:21.490Z,1.60
2022-09-12T08:09:51.258Z,1.85
2022-09-12T08:12:20.300Z,1.80
2022-09-12T08:14:51.264Z,1.77
2022-09-12T08:17:19.177Z,1.83
2022-09-12T08:19:47.582Z,1.50
2022-09-12T08:22:23.939Z,1.70
2022-09-12T08:24:51.865Z,1.73
2022-09-12T08:27:21.905Z,2.03
2022-09-12T08:29:52.932Z,1.63
2022-09-12T08:32:20.713Z,1.75
2022-09-12T08:34:50.558Z,1.60
2022-09-12T08:37:20.272Z,2.30
2022-09-12T08:39:48.108Z,1.85
2022-09-12T08:42:29.556Z,1.70
2022-09-12T08:45:10.286Z,2.03
2022-09-12T08:47:44.650Z,1.90
2022-09-12T08:50:17.748Z,1.90
2022-09-12T08:52:55.790Z,1.98
2022-09-12T08:55:34.997Z,1.90
2022-09-12T08:58:16.253Z,2.10
2022-09-12T09:00:52.646Z,1.58
2022-09-12T09:03:38.962Z,1.92
2022-09-12T09:06:18.297Z,1.90
2022-09-12T09:09:03.858Z,1.70
2022-09-12T09:12:01.464Z,1.73
2022-09-12T09:14:50.885Z,1.88
2022-09-12T09:17:28.590Z,1.70
2022-09-12T09:20:06.969Z,2.05
2022-09-12T09:22:42.417Z,1.92
2022-09-12T09:25:22.906Z,1.60
2022-09-12T09:27:58.413Z,1.90
2022-09-12T09:30:30.885Z,2.42
2022-09-12T09:33:04.088Z,1.98
2022-09-12T09:35:46.837Z,1.80
2022-09-12T09:38:24.878Z,1.60
2022-09-12T09:46:21.465Z,1.80
2022-09-12T09:48:52.194Z,1.75
2022-09-12T09:51:36.754Z,1.73
2022-09-12T09:54:14.991Z,1.65
2022-09-12T09:56:50.875Z,1.80
2022-09-12T09:59:22.686Z,1.50
2022-09-12T10:01:57.904Z,1.70
2022-09-12T10:04:29.977Z,1.95
2022-09-12T10:07:02.257Z,1.70
2022-09-12T10:09:35.559Z,1.67
2022-09-12T10:12:24.916Z,1.33
2022-09-12T10:15:02.831Z,1.50
2022-09-12T10:17:45.001Z,1.48
2022-09-12T10:20:35.001Z,1.70
2022-09-12T10:25:40.722Z,1.65
2022-09-12T10:28:43.559Z,1.43
2022-09-12T10:31:17.015Z,1.67
2022-09-12T10:33:55.005Z,1.48
2022-09-12T10:36:27.804Z,1.58
2022-09-12T10:39:04.283Z,1.60
2022-09-12T10:41:39.446Z,1.70
2022-09-12T10:44:18.741Z,1.58
2022-09-12T10:46:48.603Z,1.67
2022-09-12T10:49:26.708Z,1.60
2022-09-12T10:51:57.343Z,1.60
2022-09-12T10:54:29.733Z,1.52
2022-09-12T10:57:30.286Z,1.80
2022-09-12T11:00:10.648Z,1.65
2022-09-12T11:02:50.846Z,1.70
2022-09-12T11:05:39.392Z,1.88
2022-09-12T11:08:43.237Z,1.45
2022-09-12T11:15:10.108Z,2.05
2022-09-12T11:17:51.178Z,1.60
2022-09-12T11:20:43.548Z,1.70
2022-09-12T11:24:09.288Z,1.65
2022-09-12T11:27:04.310Z,1.65
2022-09-12T11:30:27.744Z,1.50
2022-09-12T11:33:30.012Z,1.80
2022-09-12T11:37:01.569Z,1.50
2022-09-12T11:39:43.193Z,1.42
2022-09-12T11:46:21.987Z,1.38
2022-09-12T11:48:56.174Z,1.50
2022-09-12T11:51:54.293Z,1.42
2022-09-12T11:54:28.316Z,1.65
2022-09-12T11:57:29.640Z,1.45
2022-09-12T12:00:23.363Z,1.17
2022-09-12T12:03:16.079Z,1.30
2022-09-12T12:05:53.917Z,1.30
2022-09-12T12:08:28.732Z,1.33
2022-09-12T12:11:00.713Z,1.27
2022-09-12T12:13:35.775Z,1.33
2022-09-12T12:16:17.831Z,1.40
2022-09-12T12:18:54.025Z,1.20
2022-09-12T12:21:43.163Z,1.35
2022-09-12T12:24:16.661Z,1.17
2022-09-12T12:27:02.265Z,1.40
2022-09-12T12:34:51.434Z,1.13
2022-09-12T12:38:27.956Z,1.05
2022-09-12T12:57:40.616Z,1.13
2022-09-12T13:00:33.367Z,0.88
2022-09-12T13:03:23.405Z,1.20
2022-09-12T13:06:04.513Z,1.10
2022-09-12T13:08:49.589Z,1.23
2022-09-12T13:24:54.290Z,1.52
2022-09-12T13:27:26.185Z,1.30
2022-09-12T13:30:11.070Z,1.08
2022-09-12T13:32:39.432Z,0.98
2022-09-12T13:35:19.005Z,1.05
2022-09-12T13:37:54.641Z,1.10
2022-09-12T13:40:35.138Z,1.10
2022-09-12T13:43:15.089Z,1.10
2022-09-12T13:45:46.684Z,1.15
2022-09-12T13:48:19.775Z,1.10
2022-09-12T13:50:54.898Z,1.35
2022-09-12T13:53:30.188Z,1.15
2022-09-12T13:56:00.825Z,1.20
2022-09-12T13:58:33.522Z,1.10
2022-09-12T14:01:07.053Z,1.25
2022-09-12T14:03:59.285Z,1.25
2022-09-12T14:06:29.555Z,1.20
2022-09-12T14:09:02.305Z,1.20
2022-09-12T14:11:39.054Z,1.40
2022-09-12T14:14:22.081Z,1.33
2022-09-12T14:16:56.630Z,1.08
2022-09-12T14:19:29.220Z,1.13
2022-09-12T14:22:01.318Z,1.10
2022-09-12T14:24:33.325Z,1.13
2022-09-12T14:27:04.051Z,1.27
2022-09-12T14:29:34.758Z,1.40
2022-09-12T14:32:08.071Z,1.20
2022-09-12T14:34:38.093Z,1.25
2022-09-12T14:37:17.112Z,1.40
2022-09-12T14:39:56.099Z,1.30
2022-09-12T14:42:34.157Z,1.27
2022-09-12T14:45:15.783Z,1.27
2022-09-12T14:47:56.737Z,1.35
2022-09-12T14:50:33.557Z,1.60
2022-09-12T14:53:10.829Z,1.30
2022-09-12T14:55:54.635Z,1.20
2022-09-12T14:59:36.504Z,1.52
2022-09-12T15:02:57.808Z,1.52
2022-09-12T15:05:32.843Z,1.05
2022-09-12T15:08:19.241Z,1.38
2022-09-12T15:10:55.385Z,1.25
2022-09-12T15:13:42.159Z,1.50
2022-09-12T15:16:34.073Z,1.50
2022-09-12T15:19:04.541Z,1.40
2022-09-12T15:25:14.575Z,1.48
2022-09-12T15:27:44.432Z,1.60
2022-09-12T15:30:14.558Z,1.40
2022-09-12T15:32:46.662Z,1.40
2022-09-12T15:35:18.120Z,1.70
2022-09-12T15:37:47.258Z,1.50
2022-09-12T15:40:16.524Z,1.55
2022-09-12T15:42:45.874Z,1.75
2022-09-12T15:45:23.141Z,1.70
2022-09-12T15:47:52.177Z,1.58
2022-09-12T15:50:23.096Z,1.13
2022-09-12T15:52:54.170Z,1.35
2022-09-12T15:55:26.105Z,1.55
2022-09-12T15:57:57.841Z,1.63
2022-09-12T16:00:26.953Z,1.70
2022-09-12T16:02:56.339Z,1.85
2022-09-12T16:05:29.084Z,1.67
2022-09-12T16:07:57.990Z,1.20
2022-09-12T16:10:29.104Z,1.60
2022-09-12T16:13:00.133Z,1.60
2022-09-12T16:15:28.646Z,1.48
2022-09-12T16:17:57.215Z,2.00
2022-09-12T16:20:28.679Z,1.85
2022-09-12T16:22:56.983Z,1.85
2022-09-12T16:25:26.010Z,1.70
2022-09-12T16:28:00.774Z,1.90
2022-09-12T16:30:29.641Z,1.95
2022-09-12T16:32:58.439Z,1.90
2022-09-12T16:35:27.359Z,1.70
2022-09-12T16:37:56.038Z,1.60
2022-09-12T16:40:26.944Z,1.88
2022-09-12T16:42:58.457Z,1.70
2022-09-12T16:45:30.612Z,1.80
2022-09-12T16:48:01.739Z,2.00
2022-09-12T16:50:30.617Z,1.83
2022-09-12T16:53:01.225Z,2.20
2022-09-12T16:55:32.485Z,3.03
2022-09-12T16:58:01.594Z,2.72
2022-09-12T17:00:37.716Z,2.70
2022-09-12T17:03:07.293Z,2.08
2022-09-12T17:05:41.571Z,2.40
2022-09-12T17:08:13.274Z,2.25
2022-09-12T17:10:45.473Z,3.05
2022-09-12T17:13:14.461Z,2.72
2022-09-12T17:15:50.001Z,2.60
2022-09-12T17:18:20.595Z,2.15
2022-09-12T17:20:52.519Z,2.00
2022-09-12T17:23:21.786Z,1.80
2022-09-12T17:25:54.083Z,2.20
2022-09-12T17:28:23.584Z,2.10
2022-09-12T17:31:02.654Z,2.03
2022-09-12T17:33:33.076Z,1.95
2022-09-12T17:38:37.657Z,2.72
2022-09-12T17:41:13.093Z,2.10
2022-09-12T17:43:43.183Z,2.25
2022-09-12T17:46:15.983Z,2.30
2022-09-12T17:48:46.169Z,2.20
2022-09-12T17:51:18.159Z,2.20
2022-09-12T17:53:49.545Z,2.00
2022-09-12T17:56:19.795Z,1.88
2022-09-12T17:58:50.627Z,2.00
2022-09-12T18:01:40.408Z,2.17
2022-09-12T18:04:11.203Z,2.10
2022-09-12T18:06:48.587Z,2.20
2022-09-12T18:09:22.985Z,1.92
2022-09-12T18:11:57.699Z,2.53
2022-09-12T18:14:28.465Z,2.17
2022-09-12T18:17:05.802Z,2.38
2022-09-12T18:19:36.121Z,2.47
2022-09-12T18:22:12.518Z,2.60
2022-09-12T18:24:44.175Z,2.50
2022-09-12T18:27:19.275Z,2.90
2022-09-12T18:30:10.291Z,2.80
2022-09-12T18:32:47.502Z,2.50
2022-09-12T18:35:17.812Z,2.50
2022-09-12T18:37:53.659Z,2.10
2022-09-12T18:40:24.405Z,2.45
2022-09-12T18:43:00.799Z,2.33
2022-09-12T18:45:32.740Z,2.38
2022-09-12T18:48:10.538Z,2.43
2022-09-12T18:50:41.060Z,2.20
2022-09-12T18:55:49.223Z,2.40
2022-09-12T18:58:24.238Z,2.47
2022-09-12T19:00:55.291Z,2.60
2022-09-12T19:03:29.756Z,2.37
2022-09-12T19:06:02.832Z,2.20
2022-09-12T19:08:39.118Z,2.30
2022-09-12T19:11:10.599Z,2.50
2022-09-12T19:13:48.430Z,2.30
2022-09-12T19:16:29.541Z,2.37
2022-09-12T19:19:07.248Z,2.90
2022-09-12T19:21:45.818Z,2.90
2022-09-12T19:28:36.902Z,2.70
2022-09-12T19:31:51.269Z,2.67
2022-09-12T20:14:25.764Z,3.27
2022-09-12T21:23:49.255Z,2.50
2022-09-12T22:32:32.753Z,2.27
2022-09-12T22:43:09.542Z,2.08
2022-09-12T22:46:31.408Z,2.07
2022-09-12T23:12:34.668Z,2.58
2022-09-12T23:15:19.358Z,2.37
2022-09-12T23:17:59.924Z,2.30
2022-09-12T23:20:44.378Z,2.17
2022-09-12T23:23:30.053Z,2.40
2022-09-12T23:26:15.825Z,2.20
2022-09-12T23:29:00.474Z,2.10
2022-09-12T23:31:40.638Z,2.20
2022-09-12T23:34:22.394Z,2.15
2022-09-12T23:36:59.934Z,2.10
2022-09-12T23:39:43.954Z,2.10
2022-09-12T23:42:16.032Z,1.80
2022-09-12T23:44:53.785Z,1.93
2022-09-12T23:47:37.106Z,1.80
2022-09-12T23:50:24.519Z,2.50
2022-09-12T23:53:12.047Z,2.20
2022-09-12T23:55:55.054Z,2.30
2022-09-12T23:58:33.498Z,2.30
